Time,TemperatureF,DewpointF,PressureIn,WindDirection,WindDirectionDegrees,WindSpeedMPH,WindSpeedGustMPH,Humidity,HourlyPrecipIn,Conditions,Clouds,dailyrainin,SoftwareType,DateUTC
2013-09-11 00:00:00,81.1,41.9,29.65,SW,221,1.0,1.0,25,0.00,,,0.00,Wunderground v.1.15,2013-09-11 07:00:00,
2013-09-11 00:05:00,80.9,41.8,29.65,SSW,208,0.0,1.0,25,0.00,,,0.00,Wunderground v.1.15,2013-09-11 07:05:00,
2013-09-11 00:10:00,80.9,41.8,29.65,SW,216,1.0,2.0,25,0.00,,,0.00,Wunderground v.1.15,2013-09-11 07:10:00,
2013-09-11 00:15:00,80.9,41.8,29.65,SW,221,3.0,3.0,25,0.00,,,0.00,Wunderground v.1.15,2013-09-11 07:15:00,
2013-09-11 00:20:00,80.9,41.8,29.65,SW,225,2.0,2.0,25,0.00,,,0.00,Wunderground v.1.15,2013-09-11 07:20:00,
2013-09-11 00:25:00,80.7,41.6,29.65,SSW,201,1.0,2.0,25,0.00,,,0.00,Wunderground v.1.15,2013-09-11 07:25:00,
2013-09-11 00:30:00,80.5,41.4,29.65,SSW,206,1.0,5.0,25,0.00,,,0.00,Wunderground v.1.15,2013-09-11 07:30:00,
2013-09-11 00:35:00,80.5,42.4,29.65,SSW,207,1.0,5.0,26,0.00,,,0.00,Wunderground v.1.15,2013-09-11 07:35:00,
2013-09-11 00:45:00,79.4,41.5,29.66,SSW,213,0.0,1.0,26,0.00,,,0.00,Wunderground v.1.15,2013-09-11 07:45:00,
2013-09-11 00:50:00,78.6,41.8,29.66,SW,217,0.0,0.0,27,0.00,,,0.00,Wunderground v.1.15,2013-09-11 07:50:00,
2013-09-11 00:55:00,78.3,42.5,29.66,SW,217,0.0,0.0,28,0.00,,,0.00,Wunderground v.1.15,2013-09-11 07:55:00,
2013-09-11 01:00:00,78.1,42.3,29.66,SSE,167,0.0,0.0,28,0.00,,,0.00,Wunderground v.1.15,2013-09-11 08:00:00,
2013-09-11 01:05:00,78.3,42.5,29.66,SW,234,0.0,0.0,28,0.00,,,0.00,Wunderground v.1.15,2013-09-11 08:05:00,
2013-09-11 01:15:00,78.3,42.5,29.66,SW,231,0.0,0.0,28,0.00,,,0.00,Wunderground v.1.15,2013-09-11 08:15:00,
2013-09-11 01:20:00,78.3,42.5,29.66,SSW,209,0.0,0.0,28,0.00,,,0.00,Wunderground v.1.15,2013-09-11 08:20:00,
2013-09-11 01:30:00,77.9,41.2,29.66,SSW,209,0.0,0.0,27,0.00,,,0.00,Wunderground v.1.15,2013-09-11 08:30:00,
2013-09-11 01:35:00,77.9,42.2,29.66,SW,224,0.0,0.0,28,0.00,,,0.00,Wunderground v.1.15,2013-09-11 08:35:00,
2013-09-11 01:45:00,77.7,41.0,29.66,SW,226,0.0,0.0,27,0.00,,,0.00,Wunderground v.1.15,2013-09-11 08:45:00,
2013-09-11 01:50:00,77.4,41.7,29.66,SW,221,0.0,0.0,28,0.00,,,0.00,Wunderground v.1.15,2013-09-11 08:50:00,
2013-09-11 01:55:00,76.7,41.1,29.66,SW,221,0.0,0.0,28,0.00,,,0.00,Wunderground v.1.15,2013-09-11 08:55:00,
2013-09-11 02:00:00,76.0,41.4,29.67,SSE,167,0.0,0.0,29,0.00,,,0.00,Wunderground v.1.15,2013-09-11 09:00:00,
2013-09-11 02:05:00,75.6,41.1,29.67,South,190,0.0,0.0,29,0.00,,,0.00,Wunderground v.1.15,2013-09-11 09:05:00,
2013-09-11 02:10:00,75.3,41.7,29.67,South,189,0.0,0.0,30,0.00,,,0.00,Wunderground v.1.15,2013-09-11 09:10:00,
2013-09-11 02:15:00,74.9,41.4,29.67,South,189,0.0,0.0,30,0.00,,,0.00,Wunderground v.1.15,2013-09-11 09:15:00,
2013-09-11 02:20:00,74.7,41.2,29.67,South,189,0.0,0.0,30,0.00,,,0.00,Wunderground v.1.15,2013-09-11 09:20:00,
2013-09-11 02:25:00,74.4,40.9,29.67,SW,219,0.0,0.0,30,0.00,,,0.00,Wunderground v.1.15,2013-09-11 09:25:00,
2013-09-11 02:30:00,74.2,40.8,29.68,South,187,0.0,0.0,30,0.00,,,0.00,Wunderground v.1.15,2013-09-11 09:30:00,
2013-09-11 02:35:00,74.0,40.6,29.68,South,187,0.0,0.0,30,0.00,,,0.00,Wunderground v.1.15,2013-09-11 09:35:00,
2013-09-11 02:40:00,73.7,40.3,29.68,SSW,194,0.0,0.0,30,0.00,,,0.00,Wunderground v.1.15,2013-09-11 09:40:00,
2013-09-11 02:45:00,73.5,40.2,29.68,SW,219,0.0,0.0,30,0.00,,,0.00,Wunderground v.1.15,2013-09-11 09:45:00,
2013-09-11 02:50:00,73.3,40.0,29.68,SW,219,0.0,0.0,30,0.00,,,0.00,Wunderground v.1.15,2013-09-11 09:50:00,
2013-09-11 02:55:00,73.3,40.8,29.68,SW,219,0.0,0.0,31,0.00,,,0.00,Wunderground v.1.15,2013-09-11 09:55:00,
2013-09-11 03:00:00,73.2,40.7,29.69,SW,218,0.0,0.0,31,0.00,,,0.00,Wunderground v.1.15,2013-09-11 10:00:00,
2013-09-11 03:05:00,73.3,41.6,29.69,SW,218,0.0,0.0,32,0.00,,,0.00,Wunderground v.1.15,2013-09-11 10:05:00,
2013-09-11 03:10:00,73.5,41.8,29.69,SW,217,0.0,0.0,32,0.00,,,0.00,Wunderground v.1.15,2013-09-11 10:10:00,
2013-09-11 03:15:00,74.0,41.4,29.69,SSW,205,0.0,0.0,31,0.00,,,0.00,Wunderground v.1.15,2013-09-11 10:15:00,
2013-09-11 03:20:00,74.6,41.1,29.69,SW,234,1.0,1.0,30,0.00,,,0.00,Wunderground v.1.15,2013-09-11 10:20:00,
2013-09-11 03:25:00,74.7,41.2,29.69,SSW,210,0.0,1.0,30,0.00,,,0.00,Wunderground v.1.15,2013-09-11 10:25:00,
2013-09-11 03:30:00,74.7,41.2,29.69,SSW,210,0.0,0.0,30,0.00,,,0.00,Wunderground v.1.15,2013-09-11 10:30:00,
2013-09-11 03:40:00,73.5,41.0,29.69,SSW,209,0.0,0.0,31,0.00,,,0.00,Wunderground v.1.15,2013-09-11 10:40:00,
2013-09-11 03:45:00,73.3,41.6,29.69,SSW,209,0.0,0.0,32,0.00,,,0.00,Wunderground v.1.15,2013-09-11 10:45:00,
2013-09-11 03:50:00,73.2,40.7,29.69,SSW,208,0.0,0.0,31,0.00,,,0.00,Wunderground v.1.15,2013-09-11 10:50:00,
2013-09-11 03:55:00,73.2,40.7,29.69,SSW,208,0.0,0.0,31,0.00,,,0.00,Wunderground v.1.15,2013-09-11 10:55:00,
2013-09-11 04:00:00,73.2,43.1,29.70,SSW,208,0.0,0.0,34,0.00,,,0.00,Wunderground v.1.15,2013-09-11 11:00:00,
2013-09-11 04:05:00,73.3,40.8,29.70,SSW,209,1.0,7.0,31,0.00,,,0.00,Wunderground v.1.15,2013-09-11 11:05:00,
2013-09-11 04:10:00,73.9,40.5,29.70,SW,214,3.0,3.0,30,0.00,,,0.00,Wunderground v.1.15,2013-09-11 11:10:00,
2013-09-11 04:15:00,73.9,43.0,29.70,SSW,213,2.0,3.0,33,0.00,,,0.00,Wunderground v.1.15,2013-09-11 11:15:00,
2013-09-11 04:20:00,73.7,40.3,29.70,SSW,196,0.0,4.0,30,0.00,,,0.00,Wunderground v.1.15,2013-09-11 11:20:00,
2013-09-11 04:25:00,73.7,40.3,29.70,SSW,200,0.0,4.0,30,0.00,,,0.00,Wunderground v.1.15,2013-09-11 11:25:00,
2013-09-11 04:30:00,73.7,40.3,29.70,SSW,205,0.0,0.0,30,0.00,,,0.00,Wunderground v.1.15,2013-09-11 11:30:00,
2013-09-11 04:35:00,73.3,40.0,29.70,SW,227,0.0,0.0,30,0.00,,,0.00,Wunderground v.1.15,2013-09-11 11:35:00,
2013-09-11 04:40:00,73.0,40.6,29.70,WSW,238,0.0,0.0,31,0.00,,,0.00,Wunderground v.1.15,2013-09-11 11:40:00,
2013-09-11 04:45:00,72.7,40.3,29.70,WSW,253,1.0,1.0,31,0.00,,,0.00,Wunderground v.1.15,2013-09-11 11:45:00,
2013-09-11 04:50:00,72.5,41.0,29.70,SW,219,0.0,1.0,32,0.00,,,0.00,Wunderground v.1.15,2013-09-11 11:50:00,
2013-09-11 04:55:00,72.5,40.1,29.70,SSW,205,0.0,1.0,31,0.00,,,0.00,Wunderground v.1.15,2013-09-11 11:55:00,
2013-09-11 05:05:00,72.8,40.4,29.71,SW,223,0.0,0.0,31,0.00,,,0.00,Wunderground v.1.15,2013-09-11 12:05:00,
2013-09-11 05:15:00,72.8,40.4,29.71,SSW,209,1.0,1.0,31,0.00,,,0.00,Wunderground v.1.15,2013-09-11 12:15:00,
2013-09-11 05:25:00,72.5,40.1,29.71,SSW,209,0.0,0.0,31,0.00,,,0.00,Wunderground v.1.15,2013-09-11 12:25:00,
2013-09-11 05:30:00,72.7,40.3,29.72,SW,222,0.0,0.0,31,0.00,,,0.00,Wunderground v.1.15,2013-09-11 12:30:00,
2013-09-11 05:40:00,72.5,40.1,29.72,SW,220,0.0,0.0,31,0.00,,,0.00,Wunderground v.1.15,2013-09-11 12:40:00,
2013-09-11 05:45:00,72.3,40.0,29.72,SW,221,0.0,0.0,31,0.00,,,0.00,Wunderground v.1.15,2013-09-11 12:45:00,
2013-09-11 05:50:00,72.3,40.0,29.72,SSW,210,0.0,0.0,31,0.00,,,0.00,Wunderground v.1.15,2013-09-11 12:50:00,
2013-09-11 05:55:00,72.3,40.0,29.72,SW,231,0.0,2.0,31,0.00,,,0.00,Wunderground v.1.15,2013-09-11 12:55:00,
2013-09-11 06:05:00,72.1,40.6,29.72,SW,223,0.0,0.0,32,0.00,,,0.00,Wunderground v.1.15,2013-09-11 13:05:00,
2013-09-11 06:15:00,72.3,39.1,29.72,SW,236,0.0,0.0,30,0.00,,,0.00,Wunderground v.1.15,2013-09-11 13:15:00,
2013-09-11 06:20:00,72.3,40.0,29.72,SW,236,0.0,0.0,31,0.00,,,0.00,Wunderground v.1.15,2013-09-11 13:20:00,
2013-09-11 06:25:00,72.1,40.6,29.72,SW,236,0.0,0.0,32,0.00,,,0.00,Wunderground v.1.15,2013-09-11 13:25:00,
2013-09-11 06:30:00,71.8,40.3,29.73,SW,236,0.0,0.0,32,0.00,,,0.00,Wunderground v.1.15,2013-09-11 13:30:00,
2013-09-11 06:35:00,71.5,40.9,29.73,SW,236,0.0,0.0,33,0.00,,,0.00,Wunderground v.1.15,2013-09-11 13:35:00,
2013-09-11 06:40:00,70.9,41.1,29.73,SW,236,0.0,0.0,34,0.00,,,0.00,Wunderground v.1.15,2013-09-11 13:40:00,
2013-09-11 06:45:00,70.8,41.0,29.73,SW,236,0.0,0.0,34,0.00,,,0.00,Wunderground v.1.15,2013-09-11 13:45:00,
2013-09-11 06:50:00,71.1,40.5,29.73,SW,230,0.0,0.0,33,0.00,,,0.00,Wunderground v.1.15,2013-09-11 13:50:00,
2013-09-11 06:55:00,71.5,40.1,29.73,SSW,211,0.0,0.0,32,0.00,,,0.00,Wunderground v.1.15,2013-09-11 13:55:00,
2013-09-11 07:00:00,71.5,40.1,29.73,SSW,211,0.0,0.0,32,0.00,,,0.00,Wunderground v.1.15,2013-09-11 14:00:00,
2013-09-11 07:05:00,71.5,40.1,29.73,SSW,210,0.0,0.0,32,0.00,,,0.00,Wunderground v.1.15,2013-09-11 14:05:00,
2013-09-11 07:15:00,71.5,40.1,29.74,SSW,210,0.0,0.0,32,0.00,,,0.00,Wunderground v.1.15,2013-09-11 14:15:00,
2013-09-11 07:20:00,71.8,40.3,29.74,SW,225,0.0,0.0,32,0.00,,,0.00,Wunderground v.1.15,2013-09-11 14:20:00,
2013-09-11 07:25:00,72.0,40.5,29.74,SW,225,0.0,0.0,32,0.00,,,0.00,Wunderground v.1.15,2013-09-11 14:25:00,
2013-09-11 07:30:00,72.3,40.8,29.74,SW,229,0.0,0.0,32,0.00,,,0.00,Wunderground v.1.15,2013-09-11 14:30:00,
2013-09-11 07:35:00,72.5,41.0,29.74,SW,216,0.0,2.0,32,0.00,,,0.00,Wunderground v.1.15,2013-09-11 14:35:00,
2013-09-11 07:40:00,72.8,40.4,29.74,SW,217,1.0,1.0,31,0.00,,,0.00,Wunderground v.1.15,2013-09-11 14:40:00,
2013-09-11 07:45:00,73.2,40.7,29.74,SW,224,1.0,1.0,31,0.00,,,0.00,Wunderground v.1.15,2013-09-11 14:45:00,
2013-09-11 07:50:00,73.5,41.0,29.74,SW,230,1.0,1.0,31,0.00,,,0.00,Wunderground v.1.15,2013-09-11 14:50:00,
2013-09-11 07:55:00,74.0,40.6,29.74,SW,222,0.0,1.0,30,0.00,,,0.00,Wunderground v.1.15,2013-09-11 14:55:00,
2013-09-11 08:00:00,74.6,40.2,29.74,SW,228,0.0,0.0,29,0.00,,,0.00,Wunderground v.1.15,2013-09-11 15:00:00,
2013-09-11 08:05:00,75.3,39.9,29.74,WSW,246,0.0,0.0,28,0.00,,,0.00,Wunderground v.1.15,2013-09-11 15:05:00,
2013-09-11 08:15:00,76.1,41.5,29.74,WNW,290,0.0,0.0,29,0.00,,,0.00,Wunderground v.1.15,2013-09-11 15:15:00,
2013-09-11 08:20:00,76.5,40.0,29.74,WSW,251,0.0,0.0,27,0.00,,,0.00,Wunderground v.1.15,2013-09-11 15:20:00,
2013-09-11 08:30:00,77.0,40.4,29.74,SW,229,1.0,1.0,27,0.00,,,0.00,Wunderground v.1.15,2013-09-11 15:30:00,
2013-09-11 08:35:00,77.4,41.7,29.74,West,271,1.0,1.0,28,0.00,,,0.00,Wunderground v.1.15,2013-09-11 15:35:00,
2013-09-11 08:45:00,77.7,41.0,29.75,WNW,299,0.0,1.0,27,0.00,,,0.00,Wunderground v.1.15,2013-09-11 15:45:00,
2013-09-11 08:50:00,77.7,41.0,29.75,WNW,297,0.0,0.0,27,0.00,,,0.00,Wunderground v.1.15,2013-09-11 15:50:00,
2013-09-11 09:00:00,77.6,41.9,29.75,NW,319,0.0,0.0,28,0.00,,,0.00,Wunderground v.1.15,2013-09-11 16:00:00,
2013-09-11 09:05:00,77.6,41.9,29.75,NW,318,0.0,0.0,28,0.00,,,0.00,Wunderground v.1.15,2013-09-11 16:05:00,
2013-09-11 09:10:00,77.7,41.0,29.75,WNW,292,0.0,0.0,27,0.00,,,0.00,Wunderground v.1.15,2013-09-11 16:10:00,
2013-09-11 09:15:00,77.7,41.0,29.75,WNW,293,0.0,0.0,27,0.00,,,0.00,Wunderground v.1.15,2013-09-11 16:15:00,
2013-09-11 09:20:00,77.9,42.2,29.75,WNW,294,0.0,0.0,28,0.00,,,0.00,Wunderground v.1.15,2013-09-11 16:20:00,
2013-09-11 09:25:00,77.7,41.0,29.75,WNW,298,0.0,0.0,27,0.00,,,0.00,Wunderground v.1.15,2013-09-11 16:25:00,
2013-09-11 09:30:00,77.6,41.9,29.76,WNW,297,0.0,0.0,28,0.00,,,0.00,Wunderground v.1.15,2013-09-11 16:30:00,
2013-09-11 09:35:00,77.4,41.7,29.76,WNW,298,0.0,0.0,28,0.00,,,0.00,Wunderground v.1.15,2013-09-11 16:35:00,
2013-09-11 09:40:00,77.2,41.6,29.76,WNW,298,0.0,0.0,28,0.00,,,0.00,Wunderground v.1.15,2013-09-11 16:40:00,
2013-09-11 09:45:00,77.2,41.6,29.76,WNW,298,0.0,0.0,28,0.00,,,0.00,Wunderground v.1.15,2013-09-11 16:45:00,
2013-09-11 09:50:00,77.2,40.6,29.76,NW,304,0.0,0.0,27,0.00,,,0.00,Wunderground v.1.15,2013-09-11 16:50:00,
2013-09-11 09:55:00,77.2,41.6,29.76,NW,304,0.0,0.0,28,0.00,,,0.00,Wunderground v.1.15,2013-09-11 16:55:00,
2013-09-11 10:00:00,77.2,41.6,29.76,NW,311,0.0,0.0,28,0.00,,,0.00,Wunderground v.1.15,2013-09-11 17:00:00,
2013-09-11 10:05:00,77.2,41.6,29.76,NW,311,0.0,0.0,28,0.00,,,0.00,Wunderground v.1.15,2013-09-11 17:05:00,
2013-09-11 10:10:00,77.2,40.6,29.76,NW,311,0.0,0.0,27,0.00,,,0.00,Wunderground v.1.15,2013-09-11 17:10:00,
2013-09-11 10:15:00,77.4,40.8,29.76,NW,306,0.0,0.0,27,0.00,,,0.00,Wunderground v.1.15,2013-09-11 17:15:00,
2013-09-11 10:20:00,78.1,42.3,29.76,NW,306,0.0,0.0,28,0.00,,,0.00,Wunderground v.1.15,2013-09-11 17:20:00,
2013-09-11 10:25:00,78.8,42.9,29.76,NW,306,0.0,0.0,28,0.00,,,0.00,Wunderground v.1.15,2013-09-11 17:25:00,
2013-09-11 10:35:00,80.3,42.3,29.76,SW,235,0.0,0.0,26,0.00,,,0.00,Wunderground v.1.15,2013-09-11 17:35:00,
2013-09-11 10:40:00,81.1,41.9,29.76,WSW,238,0.0,0.0,25,0.00,,,0.00,Wunderground v.1.15,2013-09-11 17:40:00,
2013-09-11 10:45:00,81.4,42.2,29.76,WSW,257,0.0,0.0,25,0.00,,,0.00,Wunderground v.1.15,2013-09-11 17:45:00,
2013-09-11 10:50:00,82.0,44.7,29.76,WSW,258,0.0,0.0,27,0.00,,,0.00,Wunderground v.1.15,2013-09-11 17:50:00,
2013-09-11 10:55:00,82.6,43.2,29.76,WNW,300,0.0,0.0,25,0.00,,,0.00,Wunderground v.1.15,2013-09-11 17:55:00,
2013-09-11 11:00:00,83.0,43.5,29.76,WNW,291,0.0,0.0,25,0.00,,,0.00,Wunderground v.1.15,2013-09-11 18:00:00,
2013-09-11 11:05:00,83.2,43.7,29.76,West,277,0.0,0.0,25,0.00,,,0.00,Wunderground v.1.15,2013-09-11 18:05:00,
2013-09-11 11:10:00,83.6,46.1,29.76,West,281,0.0,0.0,27,0.00,,,0.00,Wunderground v.1.15,2013-09-11 18:10:00,
2013-09-11 11:20:00,84.3,44.6,29.75,WNW,296,0.0,0.0,25,0.00,,,0.00,Wunderground v.1.15,2013-09-11 18:20:00,
2013-09-11 11:25:00,84.5,44.8,29.75,ENE,66,0.0,0.0,25,0.00,,,0.00,Wunderground v.1.15,2013-09-11 18:25:00,
2013-09-11 11:30:00,84.9,47.2,29.75,NW,325,0.0,0.0,27,0.00,,,0.00,Wunderground v.1.15,2013-09-11 18:30:00,
2013-09-11 11:35:00,85.3,44.4,29.75,West,275,0.0,0.0,24,0.00,,,0.00,Wunderground v.1.15,2013-09-11 18:35:00,
2013-09-11 11:40:00,85.3,43.3,29.75,NNW,340,0.0,0.0,23,0.00,,,0.00,Wunderground v.1.15,2013-09-11 18:40:00,
2013-09-11 11:45:00,85.3,44.4,29.75,West,273,0.0,0.0,24,0.00,,,0.00,Wunderground v.1.15,2013-09-11 18:45:00,
2013-09-11 11:50:00,84.9,43.0,29.75,NNW,348,0.0,0.0,23,0.00,,,0.00,Wunderground v.1.15,2013-09-11 18:50:00,
2013-09-11 11:55:00,84.7,43.9,29.75,NE,47,0.0,0.0,24,0.00,,,0.00,Wunderground v.1.15,2013-09-11 18:55:00,
2013-09-11 12:00:00,84.9,43.0,29.75,NNE,33,0.0,0.0,23,0.00,,,0.00,Wunderground v.1.15,2013-09-11 19:00:00,
2013-09-11 12:05:00,84.7,42.8,29.75,NNE,33,0.0,0.0,23,0.00,,,0.00,Wunderground v.1.15,2013-09-11 19:05:00,
2013-09-11 12:10:00,84.5,42.6,29.75,NNE,33,0.0,0.0,23,0.00,,,0.00,Wunderground v.1.15,2013-09-11 19:10:00,
2013-09-11 12:15:00,84.5,44.8,29.75,NNE,32,0.0,0.0,25,0.00,,,0.00,Wunderground v.1.15,2013-09-11 19:15:00,
2013-09-11 12:20:00,84.7,43.9,29.75,WNW,303,0.0,0.0,24,0.00,,,0.00,Wunderground v.1.15,2013-09-11 19:20:00,
2013-09-11 12:25:00,84.7,45.0,29.75,WNW,300,0.0,0.0,25,0.00,,,0.00,Wunderground v.1.15,2013-09-11 19:25:00,
2013-09-11 12:30:00,84.9,44.1,29.74,North,350,0.0,0.0,24,0.00,,,0.00,Wunderground v.1.15,2013-09-11 19:30:00,
2013-09-11 12:35:00,84.9,41.8,29.74,North,355,0.0,0.0,22,0.00,,,0.00,Wunderground v.1.15,2013-09-11 19:35:00,
2013-09-11 12:40:00,84.7,42.8,29.74,North,360,0.0,0.0,23,0.00,,,0.00,Wunderground v.1.15,2013-09-11 19:40:00,
2013-09-11 12:45:00,84.9,44.1,29.73,NW,304,0.0,0.0,24,0.00,,,0.00,Wunderground v.1.15,2013-09-11 19:45:00,
2013-09-11 12:50:00,85.1,42.0,29.73,NNW,347,0.0,0.0,22,0.00,,,0.00,Wunderground v.1.15,2013-09-11 19:50:00,
2013-09-11 12:55:00,85.1,42.0,29.73,WSW,251,0.0,0.0,22,0.00,,,0.00,Wunderground v.1.15,2013-09-11 19:55:00,
2013-09-11 13:05:00,85.9,42.6,29.73,WSW,248,0.0,0.0,22,0.00,,,0.00,Wunderground v.1.15,2013-09-11 20:05:00,
2013-09-11 13:10:00,86.3,43.0,29.73,WSW,249,0.0,0.0,22,0.00,,,0.00,Wunderground v.1.15,2013-09-11 20:10:00,
2013-09-11 13:15:00,86.5,44.3,29.73,West,275,0.0,0.0,23,0.00,,,0.00,Wunderground v.1.15,2013-09-11 20:15:00,
2013-09-11 13:20:00,87.0,43.6,29.73,NW,309,0.0,0.0,22,0.00,,,0.00,Wunderground v.1.15,2013-09-11 20:20:00,
2013-09-11 13:25:00,87.4,42.7,29.73,NNW,345,0.0,0.0,21,0.00,,,0.00,Wunderground v.1.15,2013-09-11 20:25:00,
2013-09-11 13:35:00,87.6,44.1,29.72,NNE,32,0.0,0.0,22,0.00,,,0.00,Wunderground v.1.15,2013-09-11 20:35:00,
2013-09-11 13:40:00,87.6,45.2,29.72,NNE,20,0.0,0.0,23,0.00,,,0.00,Wunderground v.1.15,2013-09-11 20:40:00,
2013-09-11 13:45:00,87.4,43.9,29.72,NNE,20,0.0,0.0,22,0.00,,,0.00,Wunderground v.1.15,2013-09-11 20:45:00,
2013-09-11 13:50:00,87.8,44.2,29.72,NNE,21,0.0,0.0,22,0.00,,,0.00,Wunderground v.1.15,2013-09-11 20:50:00,
2013-09-11 13:55:00,88.0,41.9,29.72,NNW,342,0.0,0.0,20,0.00,,,0.00,Wunderground v.1.15,2013-09-11 20:55:00,
2013-09-11 14:05:00,88.4,42.2,29.71,East,88,0.0,0.0,20,0.00,,,0.00,Wunderground v.1.15,2013-09-11 21:05:00,
2013-09-11 14:15:00,89.3,41.6,29.71,ENE,68,0.0,0.0,19,0.00,,,0.00,Wunderground v.1.15,2013-09-11 21:15:00,
2013-09-11 14:20:00,89.3,41.6,29.71,NNE,15,0.0,0.0,19,0.00,,,0.00,Wunderground v.1.15,2013-09-11 21:20:00,
2013-09-11 14:30:00,89.9,43.5,29.71,East,92,0.0,0.0,20,0.00,,,0.00,Wunderground v.1.15,2013-09-11 21:30:00,
2013-09-11 14:35:00,90.1,42.3,29.71,NE,46,0.0,0.0,19,0.00,,,0.00,Wunderground v.1.15,2013-09-11 21:35:00,
2013-09-11 14:40:00,90.5,43.9,29.71,ENE,65,0.0,0.0,20,0.00,,,0.00,Wunderground v.1.15,2013-09-11 21:40:00,
2013-09-11 14:45:00,90.5,43.9,29.70,NE,40,0.0,0.0,20,0.00,,,0.00,Wunderground v.1.15,2013-09-11 21:45:00,
2013-09-11 14:50:00,90.7,42.8,29.70,ENE,74,0.0,0.0,19,0.00,,,0.00,Wunderground v.1.15,2013-09-11 21:50:00,
2013-09-11 14:55:00,91.4,47.2,29.70,South,182,0.0,0.0,22,0.00,,,0.00,Wunderground v.1.15,2013-09-11 21:55:00,
2013-09-11 15:00:00,92.1,42.5,29.69,South,178,0.0,0.0,18,0.00,,,0.00,Wunderground v.1.15,2013-09-11 22:00:00,
2013-09-11 15:05:00,91.8,40.8,29.69,ESE,122,0.0,0.0,17,0.00,,,0.00,Wunderground v.1.15,2013-09-11 22:05:00,
2013-09-11 15:10:00,92.3,42.7,29.69,SSE,160,0.0,0.0,18,0.00,,,0.00,Wunderground v.1.15,2013-09-11 22:10:00,
2013-09-11 15:15:00,92.5,44.2,29.69,East,95,0.0,0.0,19,0.00,,,0.00,Wunderground v.1.15,2013-09-11 22:15:00,
2013-09-11 15:20:00,92.5,42.8,29.69,NE,53,1.0,1.0,18,0.00,,,0.00,Wunderground v.1.15,2013-09-11 22:20:00,
2013-09-11 15:25:00,92.3,44.1,29.69,ENE,59,0.0,1.0,19,0.00,,,0.00,Wunderground v.1.15,2013-09-11 22:25:00,
2013-09-11 15:30:00,92.3,42.7,29.68,East,94,0.0,0.0,18,0.00,,,0.00,Wunderground v.1.15,2013-09-11 22:30:00,
2013-09-11 15:35:00,92.3,41.2,29.68,ENE,67,0.0,2.0,17,0.00,,,0.00,Wunderground v.1.15,2013-09-11 22:35:00,
2013-09-11 15:40:00,92.3,42.7,29.68,SSE,154,1.0,1.0,18,0.00,,,0.00,Wunderground v.1.15,2013-09-11 22:40:00,
2013-09-11 15:45:00,92.3,42.7,29.68,ENE,68,1.0,2.0,18,0.00,,,0.00,Wunderground v.1.15,2013-09-11 22:45:00,
2013-09-11 15:55:00,92.5,41.3,29.68,East,90,1.0,2.0,17,0.00,,,0.00,Wunderground v.1.15,2013-09-11 22:55:00,
2013-09-11 16:00:00,91.8,42.3,29.68,ENE,65,2.0,2.0,18,0.00,,,0.00,Wunderground v.1.15,2013-09-11 23:00:00,
2013-09-11 16:05:00,91.8,40.8,29.68,NNE,28,1.0,2.0,17,0.00,,,0.00,Wunderground v.1.15,2013-09-11 23:05:00,
2013-09-11 16:15:00,91.4,40.5,29.68,East,84,0.0,0.0,17,0.00,,,0.00,Wunderground v.1.15,2013-09-11 23:15:00,
2013-09-11 16:20:00,91.6,42.1,29.68,East,84,0.0,0.0,18,0.00,,,0.00,Wunderground v.1.15,2013-09-11 23:20:00,
2013-09-11 16:25:00,92.3,41.2,29.68,West,279,0.0,3.0,17,0.00,,,0.00,Wunderground v.1.15,2013-09-11 23:25:00,
2013-09-11 16:30:00,92.3,42.7,29.68,SE,136,1.0,1.0,18,0.00,,,0.00,Wunderground v.1.15,2013-09-11 23:30:00,
2013-09-11 16:35:00,92.1,43.9,29.68,East,96,1.0,1.0,19,0.00,,,0.00,Wunderground v.1.15,2013-09-11 23:35:00,
2013-09-11 16:40:00,91.6,42.1,29.68,East,96,0.0,0.0,18,0.00,,,0.00,Wunderground v.1.15,2013-09-11 23:40:00,
2013-09-11 16:45:00,91.2,40.3,29.67,East,96,0.0,0.0,17,0.00,,,0.00,Wunderground v.1.15,2013-09-11 23:45:00,
2013-09-11 16:50:00,91.2,40.3,29.67,NNE,32,0.0,0.0,17,0.00,,,0.00,Wunderground v.1.15,2013-09-11 23:50:00,
2013-09-11 16:55:00,91.0,40.1,29.67,NNE,15,0.0,0.0,17,0.00,,,0.00,Wunderground v.1.15,2013-09-11 23:55:00,
2013-09-11 17:00:00,90.7,39.9,29.67,NE,55,0.0,0.0,17,0.00,,,0.00,Wunderground v.1.15,2013-09-12 00:00:00,
2013-09-11 17:05:00,90.7,39.9,29.67,North,5,0.0,0.0,17,0.00,,,0.00,Wunderground v.1.15,2013-09-12 00:05:00,
2013-09-11 17:10:00,90.7,41.4,29.67,NNW,348,0.0,5.0,18,0.00,,,0.00,Wunderground v.1.15,2013-09-12 00:10:00,
2013-09-11 17:15:00,90.5,39.7,29.67,East,84,0.0,5.0,17,0.00,,,0.00,Wunderground v.1.15,2013-09-12 00:15:00,
2013-09-11 17:20:00,90.5,41.2,29.67,ENE,74,0.0,0.0,18,0.00,,,0.00,Wunderground v.1.15,2013-09-12 00:20:00,
2013-09-11 17:25:00,90.3,41.0,29.67,NNE,32,0.0,0.0,18,0.00,,,0.00,Wunderground v.1.15,2013-09-12 00:25:00,
2013-09-11 17:30:00,90.1,40.9,29.67,ENE,61,0.0,0.0,18,0.00,,,0.00,Wunderground v.1.15,2013-09-12 00:30:00,
2013-09-11 17:35:00,89.9,40.7,29.67,NE,40,0.0,0.0,18,0.00,,,0.00,Wunderground v.1.15,2013-09-12 00:35:00,
2013-09-11 17:40:00,89.7,40.6,29.67,ENE,57,0.0,0.0,18,0.00,,,0.00,Wunderground v.1.15,2013-09-12 00:40:00,
2013-09-11 17:45:00,89.7,40.6,29.67,East,80,0.0,0.0,18,0.00,,,0.00,Wunderground v.1.15,2013-09-12 00:45:00,
2013-09-11 17:50:00,89.5,40.4,29.67,ENE,73,0.0,0.0,18,0.00,,,0.00,Wunderground v.1.15,2013-09-12 00:50:00,
2013-09-11 17:55:00,89.5,41.8,29.67,ESE,105,0.0,0.0,19,0.00,,,0.00,Wunderground v.1.15,2013-09-12 00:55:00,
2013-09-11 18:00:00,89.3,40.2,29.67,ENE,75,0.0,0.0,18,0.00,,,0.00,Wunderground v.1.15,2013-09-12 01:00:00,
2013-09-11 18:05:00,89.3,40.2,29.67,ENE,68,0.0,0.0,18,0.00,,,0.00,Wunderground v.1.15,2013-09-12 01:05:00,
2013-09-11 18:10:00,89.3,40.2,29.67,ENE,63,0.0,3.0,18,0.00,,,0.00,Wunderground v.1.15,2013-09-12 01:10:00,
2013-09-11 18:15:00,89.0,40.0,29.67,ENE,71,1.0,3.0,18,0.00,,,0.00,Wunderground v.1.15,2013-09-12 01:15:00,
2013-09-11 18:20:00,89.0,41.4,29.67,ENE,71,1.0,2.0,19,0.00,,,0.00,Wunderground v.1.15,2013-09-12 01:20:00,
2013-09-11 18:25:00,88.8,39.8,29.67,ENE,67,0.0,2.0,18,0.00,,,0.00,Wunderground v.1.15,2013-09-12 01:25:00,
2013-09-11 18:30:00,88.8,39.8,29.67,East,80,0.0,0.0,18,0.00,,,0.00,Wunderground v.1.15,2013-09-12 01:30:00,
2013-09-11 18:40:00,88.8,39.8,29.67,East,101,0.0,0.0,18,0.00,,,0.00,Wunderground v.1.15,2013-09-12 01:40:00,
2013-09-11 18:45:00,88.6,41.1,29.67,East,101,0.0,0.0,19,0.00,,,0.00,Wunderground v.1.15,2013-09-12 01:45:00,
2013-09-11 18:50:00,88.6,41.1,29.67,East,101,0.0,0.0,19,0.00,,,0.00,Wunderground v.1.15,2013-09-12 01:50:00,
2013-09-11 19:00:00,88.4,40.9,29.67,ENE,63,0.0,0.0,19,0.00,,,0.00,Wunderground v.1.15,2013-09-12 02:00:00,
2013-09-11 19:05:00,88.2,42.1,29.67,ENE,65,0.0,0.0,20,0.00,,,0.00,Wunderground v.1.15,2013-09-12 02:05:00,
2013-09-11 19:10:00,87.8,41.7,29.67,ENE,65,0.0,0.0,20,0.00,,,0.00,Wunderground v.1.15,2013-09-12 02:10:00,
2013-09-11 19:15:00,87.8,41.7,29.67,ENE,65,0.0,0.0,20,0.00,,,0.00,Wunderground v.1.15,2013-09-12 02:15:00,
2013-09-11 19:20:00,87.6,42.8,29.67,ENE,65,0.0,0.0,21,0.00,,,0.00,Wunderground v.1.15,2013-09-12 02:20:00,
2013-09-11 19:25:00,87.4,40.1,29.67,ENE,66,0.0,0.0,19,0.00,,,0.00,Wunderground v.1.15,2013-09-12 02:25:00,
2013-09-11 19:30:00,87.4,41.4,29.67,ENE,66,0.0,0.0,20,0.00,,,0.00,Wunderground v.1.15,2013-09-12 02:30:00,
2013-09-11 19:35:00,87.2,41.2,29.67,ENE,66,0.0,0.0,20,0.00,,,0.00,Wunderground v.1.15,2013-09-12 02:35:00,
2013-09-11 19:40:00,87.2,41.2,29.67,ENE,66,0.0,0.0,20,0.00,,,0.00,Wunderground v.1.15,2013-09-12 02:40:00,
2013-09-11 19:45:00,86.7,42.1,29.67,ENE,66,0.0,0.0,21,0.00,,,0.00,Wunderground v.1.15,2013-09-12 02:45:00,
2013-09-11 19:50:00,86.3,41.8,29.67,ENE,66,0.0,0.0,21,0.00,,,0.00,Wunderground v.1.15,2013-09-12 02:50:00,
2013-09-11 20:00:00,85.3,40.9,29.68,ENE,66,0.0,0.0,21,0.00,,,0.00,Wunderground v.1.15,2013-09-12 03:00:00,
2013-09-11 20:05:00,84.9,40.6,29.68,SSW,203,0.0,0.0,21,0.00,,,0.00,Wunderground v.1.15,2013-09-12 03:05:00,
2013-09-11 20:10:00,85.3,40.9,29.68,SW,223,0.0,0.0,21,0.00,,,0.00,Wunderground v.1.15,2013-09-12 03:10:00,
2013-09-11 20:15:00,85.9,41.4,29.68,SW,219,0.0,2.0,21,0.00,,,0.00,Wunderground v.1.15,2013-09-12 03:15:00,
2013-09-11 20:20:00,86.1,42.8,29.68,SW,217,0.0,0.0,22,0.00,,,0.00,Wunderground v.1.15,2013-09-12 03:20:00,
2013-09-11 20:25:00,85.7,43.6,29.68,SW,217,0.0,0.0,23,0.00,,,0.00,Wunderground v.1.15,2013-09-12 03:25:00,
2013-09-11 20:30:00,85.3,43.3,29.68,SW,217,0.0,0.0,23,0.00,,,0.00,Wunderground v.1.15,2013-09-12 03:30:00,
2013-09-11 20:35:00,84.7,42.8,29.68,SW,217,0.0,0.0,23,0.00,,,0.00,Wunderground v.1.15,2013-09-12 03:35:00,
2013-09-11 20:40:00,84.1,42.3,29.68,SW,217,0.0,0.0,23,0.00,,,0.00,Wunderground v.1.15,2013-09-12 03:40:00,
2013-09-11 20:45:00,84.0,42.2,29.68,SW,217,0.0,0.0,23,0.00,,,0.00,Wunderground v.1.15,2013-09-12 03:45:00,
2013-09-11 20:50:00,83.8,43.2,29.68,SW,217,0.0,0.0,24,0.00,,,0.00,Wunderground v.1.15,2013-09-12 03:50:00,
2013-09-11 21:00:00,83.8,42.0,29.68,SW,225,0.0,0.0,23,0.00,,,0.00,Wunderground v.1.15,2013-09-12 04:00:00,
2013-09-11 21:05:00,83.8,42.0,29.68,SSW,213,0.0,0.0,23,0.00,,,0.00,Wunderground v.1.15,2013-09-12 04:05:00,
2013-09-11 21:10:00,83.8,42.0,29.68,SSW,211,0.0,0.0,23,0.00,,,0.00,Wunderground v.1.15,2013-09-12 04:10:00,
2013-09-11 21:15:00,83.6,41.9,29.68,SW,223,0.0,0.0,23,0.00,,,0.00,Wunderground v.1.15,2013-09-12 04:15:00,
2013-09-11 21:20:00,83.8,42.0,29.68,SSW,209,0.0,0.0,23,0.00,,,0.00,Wunderground v.1.15,2013-09-12 04:20:00,
2013-09-11 21:25:00,83.8,42.0,29.68,SSW,211,0.0,0.0,23,0.00,,,0.00,Wunderground v.1.15,2013-09-12 04:25:00,
2013-09-11 21:30:00,83.6,41.9,29.68,SSW,205,0.0,0.0,23,0.00,,,0.00,Wunderground v.1.15,2013-09-12 04:30:00,
2013-09-11 21:35:00,83.6,41.9,29.68,SW,225,0.0,0.0,23,0.00,,,0.00,Wunderground v.1.15,2013-09-12 04:35:00,
2013-09-11 21:40:00,83.2,41.5,29.68,SSW,207,1.0,1.0,23,0.00,,,0.00,Wunderground v.1.15,2013-09-12 04:40:00,
2013-09-11 21:45:00,83.2,41.5,29.68,SW,216,1.0,1.0,23,0.00,,,0.00,Wunderground v.1.15,2013-09-12 04:45:00,
2013-09-11 21:50:00,82.8,42.3,29.68,SW,234,1.0,1.0,24,0.00,,,0.00,Wunderground v.1.15,2013-09-12 04:50:00,
2013-09-11 21:55:00,82.4,42.0,29.68,SSW,211,1.0,1.0,24,0.00,,,0.00,Wunderground v.1.15,2013-09-12 04:55:00,
2013-09-11 22:00:00,82.0,41.6,29.69,SSW,209,0.0,0.0,24,0.00,,,0.00,Wunderground v.1.15,2013-09-12 05:00:00,
2013-09-11 22:05:00,82.0,41.6,29.69,SW,219,0.0,3.0,24,0.00,,,0.00,Wunderground v.1.15,2013-09-12 05:05:00,
2013-09-11 22:10:00,82.0,41.6,29.69,SW,223,0.0,0.0,24,0.00,,,0.00,Wunderground v.1.15,2013-09-12 05:10:00,
2013-09-11 22:15:00,81.6,42.4,29.69,SW,227,1.0,4.0,25,0.00,,,0.00,Wunderground v.1.15,2013-09-12 05:15:00,
2013-09-11 22:20:00,81.1,41.9,29.69,SW,215,1.0,1.0,25,0.00,,,0.00,Wunderground v.1.15,2013-09-12 05:20:00,
2013-09-11 22:25:00,80.5,41.4,29.69,SSW,211,1.0,4.0,25,0.00,,,0.00,Wunderground v.1.15,2013-09-12 05:25:00,
2013-09-11 22:30:00,80.3,41.3,29.69,SW,227,1.0,2.0,25,0.00,,,0.00,Wunderground v.1.15,2013-09-12 05:30:00,
2013-09-11 22:35:00,80.5,41.4,29.69,SSW,197,1.0,2.0,25,0.00,,,0.00,Wunderground v.1.15,2013-09-12 05:35:00,
2013-09-11 22:40:00,80.5,41.4,29.69,SSW,207,2.0,2.0,25,0.00,,,0.00,Wunderground v.1.15,2013-09-12 05:40:00,
2013-09-11 22:50:00,80.1,42.1,29.69,SW,215,1.0,1.0,26,0.00,,,0.00,Wunderground v.1.15,2013-09-12 05:50:00,
2013-09-11 22:55:00,79.9,41.9,29.69,SSW,209,1.0,1.0,26,0.00,,,0.00,Wunderground v.1.15,2013-09-12 05:55:00,
2013-09-11 23:00:00,79.8,41.9,29.69,SSW,210,1.0,1.0,26,0.00,,,0.00,Wunderground v.1.15,2013-09-12 06:00:00,
2013-09-11 23:05:00,80.1,41.1,29.69,South,178,4.0,4.0,25,0.00,,,0.00,Wunderground v.1.15,2013-09-12 06:05:00,
2013-09-11 23:10:00,80.5,40.4,29.69,South,182,6.0,6.0,24,0.00,,,0.00,Wunderground v.1.15,2013-09-12 06:10:00,
2013-09-11 23:15:00,80.9,40.7,29.69,SSW,211,6.0,6.0,24,0.00,,,0.00,Wunderground v.1.15,2013-09-12 06:15:00,
2013-09-11 23:20:00,80.5,41.4,29.69,SSW,193,3.0,3.0,25,0.00,,,0.00,Wunderground v.1.15,2013-09-12 06:20:00,
2013-09-11 23:25:00,79.9,40.9,29.69,SSW,206,1.0,3.0,25,0.00,,,0.00,Wunderground v.1.15,2013-09-12 06:25:00,
2013-09-11 23:30:00,79.4,41.5,29.69,SSW,208,0.0,0.0,26,0.00,,,0.00,Wunderground v.1.15,2013-09-12 06:30:00,
2013-09-11 23:35:00,79.2,41.3,29.69,SSW,207,0.0,0.0,26,0.00,,,0.00,Wunderground v.1.15,2013-09-12 06:35:00,
2013-09-11 23:40:00,79.0,41.2,29.69,WSW,242,0.0,0.0,26,0.00,,,0.00,Wunderground v.1.15,2013-09-12 06:40:00,
2013-09-11 23:45:00,78.8,41.0,29.70,SW,214,0.0,0.0,26,0.00,,,0.00,Wunderground v.1.15,2013-09-12 06:45:00,
2013-09-11 23:50:00,78.6,40.8,29.70,SW,217,0.0,0.0,26,0.00,,,0.00,Wunderground v.1.15,2013-09-12 06:50:00,
2013-09-11 23:55:00,78.6,40.8,29.70,SW,217,0.0,0.0,26,0.00,,,0.00,Wunderground v.1.15,2013-09-12 06:55:00,